sensor_id;sensor_type;location;lat;lon;timestamp;P1;durP1;ratioP1;P2;durP2;ratioP2
30515;SDS011;17297;54.022;10.760;2023-09-08T00:01:17;4.50;;;4.10;;
30515;SDS011;17297;54.022;10.760;2023-09-08T00:03:43;5.80;;;4.78;;
30515;SDS011;17297;54.022;10.760;2023-09-08T00:06:08;5.65;;;5.15;;
30515;SDS011;17297;54.022;10.760;2023-09-08T00:08:33;5.38;;;4.88;;
30515;SDS011;17297;54.022;10.760;2023-09-08T00:10:59;4.47;;;4.07;;
30515;SDS011;17297;54.022;10.760;2023-09-08T00:13:24;6.72;;;4.95;;
30515;SDS011;17297;54.022;10.760;2023-09-08T00:15:49;4.90;;;4.50;;
30515;SDS011;17297;54.022;10.760;2023-09-08T00:18:15;6.13;;;5.07;;
30515;SDS011;17297;54.022;10.760;2023-09-08T00:20:41;6.43;;;4.40;;
30515;SDS011;17297;54.022;10.760;2023-09-08T00:23:07;5.43;;;4.93;;
30515;SDS011;17297;54.022;10.760;2023-09-08T00:25:32;4.53;;;3.80;;
30515;SDS011;17297;54.022;10.760;2023-09-08T00:27:59;5.47;;;4.97;;
30515;SDS011;17297;54.022;10.760;2023-09-08T00:30:25;7.70;;;4.45;;
30515;SDS011;17297;54.022;10.760;2023-09-08T00:32:50;4.75;;;4.28;;
30515;SDS011;17297;54.022;10.760;2023-09-08T00:35:16;5.05;;;4.57;;
30515;SDS011;17297;54.022;10.760;2023-09-08T00:37:41;5.30;;;4.80;;
30515;SDS011;17297;54.022;10.760;2023-09-08T00:40:07;4.82;;;4.40;;
30515;SDS011;17297;54.022;10.760;2023-09-08T00:42:33;4.90;;;4.45;;
30515;SDS011;17297;54.022;10.760;2023-09-08T00:44:59;5.13;;;4.05;;
30515;SDS011;17297;54.022;10.760;2023-09-08T00:47:24;5.05;;;4.60;;
30515;SDS011;17297;54.022;10.760;2023-09-08T00:49:49;4.57;;;4.05;;
30515;SDS011;17297;54.022;10.760;2023-09-08T00:52:16;4.38;;;3.97;;
30515;SDS011;17297;54.022;10.760;2023-09-08T00:54:42;4.28;;;3.88;;
30515;SDS011;17297;54.022;10.760;2023-09-08T00:57:07;4.03;;;3.67;;
30515;SDS011;17297;54.022;10.760;2023-09-08T00:59:34;4.05;;;3.75;;
30515;SDS011;17297;54.022;10.760;2023-09-08T01:02:03;4.75;;;4.13;;
30515;SDS011;17297;54.022;10.760;2023-09-08T01:04:30;4.78;;;3.90;;
30515;SDS011;17297;54.022;10.760;2023-09-08T01:06:58;4.38;;;4.05;;
30515;SDS011;17297;54.022;10.760;2023-09-08T01:09:23;4.30;;;4.00;;
30515;SDS011;17297;54.022;10.760;2023-09-08T01:11:50;4.72;;;4.00;;
30515;SDS011;17297;54.022;10.760;2023-09-08T01:14:19;4.45;;;4.05;;
30515;SDS011;17297;54.022;10.760;2023-09-08T01:16:45;4.38;;;4.03;;
30515;SDS011;17297;54.022;10.760;2023-09-08T01:19:11;4.20;;;3.80;;
30515;SDS011;17297;54.022;10.760;2023-09-08T01:27:06;5.15;;;4.75;;
30515;SDS011;17297;54.022;10.760;2023-09-08T01:29:32;5.30;;;4.80;;
30515;SDS011;17297;54.022;10.760;2023-09-08T01:31:59;7.68;;;5.30;;
30515;SDS011;17297;54.022;10.760;2023-09-08T01:34:25;6.25;;;5.65;;
30515;SDS011;17297;54.022;10.760;2023-09-08T01:36:51;7.03;;;5.45;;
30515;SDS011;17297;54.022;10.760;2023-09-08T01:39:16;5.97;;;5.47;;
30515;SDS011;17297;54.022;10.760;2023-09-08T01:41:42;6.15;;;5.55;;
30515;SDS011;17297;54.022;10.760;2023-09-08T01:44:07;7.38;;;5.78;;
30515;SDS011;17297;54.022;10.760;2023-09-08T01:46:35;5.60;;;5.10;;
30515;SDS011;17297;54.022;10.760;2023-09-08T01:49:00;5.07;;;4.68;;
30515;SDS011;17297;54.022;10.760;2023-09-08T01:51:26;10.05;;;5.78;;
30515;SDS011;17297;54.022;10.760;2023-09-08T01:53:51;5.35;;;4.85;;
30515;SDS011;17297;54.022;10.760;2023-09-08T01:56:16;5.88;;;5.43;;
30515;SDS011;17297;54.022;10.760;2023-09-08T01:58:42;5.60;;;5.00;;
30515;SDS011;17297;54.022;10.760;2023-09-08T02:01:07;5.70;;;5.20;;
30515;SDS011;17297;54.022;10.760;2023-09-08T02:03:34;5.60;;;5.10;;
30515;SDS011;17297;54.022;10.760;2023-09-08T02:05:59;5.82;;;5.22;;
30515;SDS011;17297;54.022;10.760;2023-09-08T02:08:25;6.10;;;5.60;;
30515;SDS011;17297;54.022;10.760;2023-09-08T02:10:50;7.00;;;5.43;;
30515;SDS011;17297;54.022;10.760;2023-09-08T02:13:15;5.95;;;5.35;;
30515;SDS011;17297;54.022;10.760;2023-09-08T02:15:41;6.78;;;5.72;;
30515;SDS011;17297;54.022;10.760;2023-09-08T02:18:06;5.70;;;5.20;;
30515;SDS011;17297;54.022;10.760;2023-09-08T02:20:32;5.97;;;5.38;;
30515;SDS011;17297;54.022;10.760;2023-09-08T02:22:57;6.63;;;5.65;;
30515;SDS011;17297;54.022;10.760;2023-09-08T02:25:28;6.32;;;5.72;;
30515;SDS011;17297;54.022;10.760;2023-09-08T02:27:54;6.47;;;5.00;;
30515;SDS011;17297;54.022;10.760;2023-09-08T02:30:19;6.22;;;5.60;;
30515;SDS011;17297;54.022;10.760;2023-09-08T02:32:45;5.93;;;5.38;;
30515;SDS011;17297;54.022;10.760;2023-09-08T02:35:12;8.57;;;6.75;;
30515;SDS011;17297;54.022;10.760;2023-09-08T02:37:38;6.35;;;5.75;;
30515;SDS011;17297;54.022;10.760;2023-09-08T02:40:03;6.57;;;5.97;;
30515;SDS011;17297;54.022;10.760;2023-09-08T02:42:31;5.57;;;5.07;;
30515;SDS011;17297;54.022;10.760;2023-09-08T02:44:56;7.40;;;6.53;;
30515;SDS011;17297;54.022;10.760;2023-09-08T02:47:21;7.22;;;6.10;;
30515;SDS011;17297;54.022;10.760;2023-09-08T02:49:47;6.93;;;5.95;;
30515;SDS011;17297;54.022;10.760;2023-09-08T02:52:12;7.80;;;7.00;;
30515;SDS011;17297;54.022;10.760;2023-09-08T02:54:37;6.63;;;5.95;;
30515;SDS011;17297;54.022;10.760;2023-09-08T02:57:04;5.90;;;5.40;;
30515;SDS011;17297;54.022;10.760;2023-09-08T02:59:29;6.55;;;5.93;;
30515;SDS011;17297;54.022;10.760;2023-09-08T03:01:55;6.25;;;5.65;;
30515;SDS011;17297;54.022;10.760;2023-09-08T03:04:22;5.57;;;5.03;;
30515;SDS011;17297;54.022;10.760;2023-09-08T03:06:48;7.03;;;6.35;;
30515;SDS011;17297;54.022;10.760;2023-09-08T03:09:13;5.53;;;5.03;;
30515;SDS011;17297;54.022;10.760;2023-09-08T03:11:39;5.20;;;4.70;;
30515;SDS011;17297;54.022;10.760;2023-09-08T03:14:06;4.80;;;4.32;;
30515;SDS011;17297;54.022;10.760;2023-09-08T03:16:31;4.95;;;4.53;;
30515;SDS011;17297;54.022;10.760;2023-09-08T03:18:56;5.80;;;3.95;;
30515;SDS011;17297;54.022;10.760;2023-09-08T03:21:23;5.45;;;4.35;;
30515;SDS011;17297;54.022;10.760;2023-09-08T03:23:48;5.38;;;4.88;;
30515;SDS011;17297;54.022;10.760;2023-09-08T03:26:15;4.55;;;4.15;;
30515;SDS011;17297;54.022;10.760;2023-09-08T03:28:41;5.20;;;4.38;;
30515;SDS011;17297;54.022;10.760;2023-09-08T03:31:07;4.45;;;4.05;;
30515;SDS011;17297;54.022;10.760;2023-09-08T03:33:34;4.80;;;4.40;;
30515;SDS011;17297;54.022;10.760;2023-09-08T03:36:00;5.07;;;4.60;;
30515;SDS011;17297;54.022;10.760;2023-09-08T03:38:26;5.50;;;5.00;;
30515;SDS011;17297;54.022;10.760;2023-09-08T03:40:52;6.05;;;4.70;;
30515;SDS011;17297;54.022;10.760;2023-09-08T03:43:18;5.15;;;4.65;;
30515;SDS011;17297;54.022;10.760;2023-09-08T03:45:43;5.03;;;4.60;;
30515;SDS011;17297;54.022;10.760;2023-09-08T03:48:09;4.97;;;4.50;;
30515;SDS011;17297;54.022;10.760;2023-09-08T03:50:35;6.05;;;5.53;;
30515;SDS011;17297;54.022;10.760;2023-09-08T03:53:01;5.03;;;4.63;;
30515;SDS011;17297;54.022;10.760;2023-09-08T03:55:27;5.78;;;5.13;;
30515;SDS011;17297;54.022;10.760;2023-09-08T03:57:52;4.65;;;4.25;;
30515;SDS011;17297;54.022;10.760;2023-09-08T04:00:18;5.63;;;5.13;;
30515;SDS011;17297;54.022;10.760;2023-09-08T04:02:47;5.07;;;4.15;;
30515;SDS011;17297;54.022;10.760;2023-09-08T04:05:13;5.55;;;5.05;;
30515;SDS011;17297;54.022;10.760;2023-09-08T04:07:39;5.85;;;5.20;;
30515;SDS011;17297;54.022;10.760;2023-09-08T04:10:04;7.68;;;5.10;;
30515;SDS011;17297;54.022;10.760;2023-09-08T04:12:30;5.75;;;5.25;;
30515;SDS011;17297;54.022;10.760;2023-09-08T04:14:55;4.30;;;3.90;;
30515;SDS011;17297;54.022;10.760;2023-09-08T04:17:21;4.68;;;4.22;;
30515;SDS011;17297;54.022;10.760;2023-09-08T04:19:46;4.47;;;4.07;;
30515;SDS011;17297;54.022;10.760;2023-09-08T04:22:12;4.72;;;4.28;;
30515;SDS011;17297;54.022;10.760;2023-09-08T04:24:37;5.15;;;4.70;;
30515;SDS011;17297;54.022;10.760;2023-09-08T04:27:03;4.88;;;4.47;;
30515;SDS011;17297;54.022;10.760;2023-09-08T04:29:28;4.38;;;3.97;;
30515;SDS011;17297;54.022;10.760;2023-09-08T04:31:54;6.00;;;5.28;;
30515;SDS011;17297;54.022;10.760;2023-09-08T04:34:19;6.43;;;5.82;;
30515;SDS011;17297;54.022;10.760;2023-09-08T04:36:44;6.45;;;5.85;;
30515;SDS011;17297;54.022;10.760;2023-09-08T04:39:10;7.18;;;5.78;;
30515;SDS011;17297;54.022;10.760;2023-09-08T04:41:36;6.18;;;5.57;;
30515;SDS011;17297;54.022;10.760;2023-09-08T04:44:02;6.75;;;6.05;;
30515;SDS011;17297;54.022;10.760;2023-09-08T04:46:28;7.72;;;6.95;;
30515;SDS011;17297;54.022;10.760;2023-09-08T04:48:54;7.07;;;6.38;;
30515;SDS011;17297;54.022;10.760;2023-09-08T04:51:21;7.20;;;6.50;;
30515;SDS011;17297;54.022;10.760;2023-09-08T04:53:47;7.15;;;6.45;;
30515;SDS011;17297;54.022;10.760;2023-09-08T04:56:13;7.85;;;6.38;;
30515;SDS011;17297;54.022;10.760;2023-09-08T04:58:39;7.45;;;6.75;;
30515;SDS011;17297;54.022;10.760;2023-09-08T05:01:05;6.65;;;5.88;;
30515;SDS011;17297;54.022;10.760;2023-09-08T05:03:30;5.85;;;5.25;;
30515;SDS011;17297;54.022;10.760;2023-09-08T05:05:56;7.65;;;5.43;;
30515;SDS011;17297;54.022;10.760;2023-09-08T05:08:22;6.38;;;5.75;;
30515;SDS011;17297;54.022;10.760;2023-09-08T05:10:48;6.22;;;5.63;;
30515;SDS011;17297;54.022;10.760;2023-09-08T05:13:16;6.32;;;5.40;;
30515;SDS011;17297;54.022;10.760;2023-09-08T05:15:42;6.57;;;5.72;;
30515;SDS011;17297;54.022;10.760;2023-09-08T05:18:09;6.18;;;5.20;;
30515;SDS011;17297;54.022;10.760;2023-09-08T05:20:34;6.63;;;6.03;;
30515;SDS011;17297;54.022;10.760;2023-09-08T05:23:00;6.80;;;5.68;;
30515;SDS011;17297;54.022;10.760;2023-09-08T05:25:25;6.82;;;6.10;;
30515;SDS011;17297;54.022;10.760;2023-09-08T05:27:51;5.43;;;4.93;;
30515;SDS011;17297;54.022;10.760;2023-09-08T05:30:16;6.95;;;6.35;;
30515;SDS011;17297;54.022;10.760;2023-09-08T05:32:42;6.85;;;6.13;;
30515;SDS011;17297;54.022;10.760;2023-09-08T05:35:07;5.78;;;5.28;;
30515;SDS011;17297;54.022;10.760;2023-09-08T05:37:33;8.35;;;6.15;;
30515;SDS011;17297;54.022;10.760;2023-09-08T05:39:58;6.30;;;5.70;;
30515;SDS011;17297;54.022;10.760;2023-09-08T05:42:24;6.00;;;5.40;;
30515;SDS011;17297;54.022;10.760;2023-09-08T05:44:49;6.68;;;5.88;;
30515;SDS011;17297;54.022;10.760;2023-09-08T05:47:15;7.70;;;6.45;;
30515;SDS011;17297;54.022;10.760;2023-09-08T05:49:40;5.93;;;5.38;;
30515;SDS011;17297;54.022;10.760;2023-09-08T05:52:06;8.10;;;6.28;;
30515;SDS011;17297;54.022;10.760;2023-09-08T05:54:33;6.60;;;5.65;;
30515;SDS011;17297;54.022;10.760;2023-09-08T05:56:58;6.47;;;5.22;;
30515;SDS011;17297;54.022;10.760;2023-09-08T05:59:26;7.03;;;5.70;;
30515;SDS011;17297;54.022;10.760;2023-09-08T06:01:52;6.00;;;5.47;;
30515;SDS011;17297;54.022;10.760;2023-09-08T06:04:17;7.90;;;6.07;;
30515;SDS011;17297;54.022;10.760;2023-09-08T06:06:42;5.93;;;5.35;;
30515;SDS011;17297;54.022;10.760;2023-09-08T06:09:08;6.32;;;5.72;;
30515;SDS011;17297;54.022;10.760;2023-09-08T06:11:35;8.05;;;7.32;;
30515;SDS011;17297;54.022;10.760;2023-09-08T06:14:02;6.40;;;5.80;;
30515;SDS011;17297;54.022;10.760;2023-09-08T06:16:33;6.65;;;5.93;;
30515;SDS011;17297;54.022;10.760;2023-09-08T06:18:58;6.80;;;5.80;;
30515;SDS011;17297;54.022;10.760;2023-09-08T06:21:25;6.93;;;6.00;;
30515;SDS011;17297;54.022;10.760;2023-09-08T06:23:50;7.10;;;6.40;;
30515;SDS011;17297;54.022;10.760;2023-09-08T06:26:15;6.65;;;6.05;;
30515;SDS011;17297;54.022;10.760;2023-09-08T06:28:42;6.82;;;6.13;;
30515;SDS011;17297;54.022;10.760;2023-09-08T06:31:09;6.30;;;5.40;;
30515;SDS011;17297;54.022;10.760;2023-09-08T06:33:36;6.32;;;5.72;;
30515;SDS011;17297;54.022;10.760;2023-09-08T06:36:01;6.57;;;5.97;;
30515;SDS011;17297;54.022;10.760;2023-09-08T06:38:27;6.95;;;5.32;;
30515;SDS011;17297;54.022;10.760;2023-09-08T06:40:52;5.80;;;5.20;;
30515;SDS011;17297;54.022;10.760;2023-09-08T06:43:19;6.10;;;5.60;;
30515;SDS011;17297;54.022;10.760;2023-09-08T06:45:51;6.35;;;5.75;;
30515;SDS011;17297;54.022;10.760;2023-09-08T06:48:17;6.50;;;5.80;;
30515;SDS011;17297;54.022;10.760;2023-09-08T06:50:43;11.55;;;6.47;;
30515;SDS011;17297;54.022;10.760;2023-09-08T06:53:08;6.55;;;5.93;;
30515;SDS011;17297;54.022;10.760;2023-09-08T06:55:34;6.07;;;5.50;;
30515;SDS011;17297;54.022;10.760;2023-09-08T06:58:00;7.03;;;6.32;;
30515;SDS011;17297;54.022;10.760;2023-09-08T07:00:25;7.20;;;6.13;;
30515;SDS011;17297;54.022;10.760;2023-09-08T07:02:51;6.45;;;5.88;;
30515;SDS011;17297;54.022;10.760;2023-09-08T07:05:17;7.57;;;6.75;;
30515;SDS011;17297;54.022;10.760;2023-09-08T07:07:43;6.32;;;5.72;;
30515;SDS011;17297;54.022;10.760;2023-09-08T07:10:08;6.80;;;5.72;;
30515;SDS011;17297;54.022;10.760;2023-09-08T07:12:35;6.35;;;5.82;;
30515;SDS011;17297;54.022;10.760;2023-09-08T07:15:00;6.28;;;5.75;;
30515;SDS011;17297;54.022;10.760;2023-09-08T07:17:26;6.82;;;6.13;;
30515;SDS011;17297;54.022;10.760;2023-09-08T07:19:52;6.53;;;5.82;;
30515;SDS011;17297;54.022;10.760;2023-09-08T07:22:18;7.43;;;6.72;;
30515;SDS011;17297;54.022;10.760;2023-09-08T07:24:44;7.68;;;6.75;;
30515;SDS011;17297;54.022;10.760;2023-09-08T07:27:09;6.88;;;6.28;;
30515;SDS011;17297;54.022;10.760;2023-09-08T07:29:35;7.53;;;6.25;;
30515;SDS011;17297;54.022;10.760;2023-09-08T07:32:01;7.30;;;6.13;;
30515;SDS011;17297;54.022;10.760;2023-09-08T07:34:26;7.47;;;6.78;;
30515;SDS011;17297;54.022;10.760;2023-09-08T07:36:51;7.25;;;6.55;;
30515;SDS011;17297;54.022;10.760;2023-09-08T07:39:17;14.32;;;8.02;;
30515;SDS011;17297;54.022;10.760;2023-09-08T07:41:43;9.85;;;6.35;;
30515;SDS011;17297;54.022;10.760;2023-09-08T07:44:09;7.53;;;6.82;;
30515;SDS011;17297;54.022;10.760;2023-09-08T07:46:37;7.93;;;6.50;;
30515;SDS011;17297;54.022;10.760;2023-09-08T07:49:02;7.72;;;6.93;;
30515;SDS011;17297;54.022;10.760;2023-09-08T07:51:28;8.18;;;7.38;;
30515;SDS011;17297;54.022;10.760;2023-09-08T07:53:53;8.25;;;7.20;;
30515;SDS011;17297;54.022;10.760;2023-09-08T07:56:19;7.68;;;6.93;;
30515;SDS011;17297;54.022;10.760;2023-09-08T07:58:44;8.73;;;7.65;;
30515;SDS011;17297;54.022;10.760;2023-09-08T08:01:09;8.00;;;7.20;;
30515;SDS011;17297;54.022;10.760;2023-09-08T08:03:35;7.20;;;6.45;;
30515;SDS011;17297;54.022;10.760;2023-09-08T08:06:01;7.55;;;6.80;;
30515;SDS011;17297;54.022;10.760;2023-09-08T08:08:26;9.80;;;6.53;;
30515;SDS011;17297;54.022;10.760;2023-09-08T08:10:52;8.32;;;7.30;;
30515;SDS011;17297;54.022;10.760;2023-09-08T08:13:17;8.00;;;7.05;;
30515;SDS011;17297;54.022;10.760;2023-09-08T08:15:42;8.45;;;7.25;;
30515;SDS011;17297;54.022;10.760;2023-09-08T08:18:10;11.05;;;8.25;;
30515;SDS011;17297;54.022;10.760;2023-09-08T08:20:36;9.75;;;8.25;;
30515;SDS011;17297;54.022;10.760;2023-09-08T08:23:02;7.78;;;6.97;;
30515;SDS011;17297;54.022;10.760;2023-09-08T08:25:27;7.85;;;7.05;;
30515;SDS011;17297;54.022;10.760;2023-09-08T08:27:53;8.48;;;7.68;;
30515;SDS011;17297;54.022;10.760;2023-09-08T08:30:18;7.85;;;7.13;;
30515;SDS011;17297;54.022;10.760;2023-09-08T08:32:44;7.63;;;6.88;;
30515;SDS011;17297;54.022;10.760;2023-09-08T08:35:09;7.72;;;6.97;;
30515;SDS011;17297;54.022;10.760;2023-09-08T08:37:35;8.30;;;7.45;;
30515;SDS011;17297;54.022;10.760;2023-09-08T08:40:00;8.40;;;7.60;;
30515;SDS011;17297;54.022;10.760;2023-09-08T08:42:31;9.07;;;8.18;;
30515;SDS011;17297;54.022;10.760;2023-09-08T08:44:57;8.48;;;7.60;;
30515;SDS011;17297;54.022;10.760;2023-09-08T08:47:22;8.40;;;7.60;;
30515;SDS011;17297;54.022;10.760;2023-09-08T08:49:50;7.90;;;7.10;;
30515;SDS011;17297;54.022;10.760;2023-09-08T08:52:16;8.25;;;7.30;;
30515;SDS011;17297;54.022;10.760;2023-09-08T08:54:42;19.15;;;9.60;;
30515;SDS011;17297;54.022;10.760;2023-09-08T08:57:08;10.10;;;7.82;;
30515;SDS011;17297;54.022;10.760;2023-09-08T08:59:34;8.57;;;7.60;;
30515;SDS011;17297;54.022;10.760;2023-09-08T09:01:59;8.60;;;7.78;;
30515;SDS011;17297;54.022;10.760;2023-09-08T09:04:26;10.27;;;9.20;;
30515;SDS011;17297;54.022;10.760;2023-09-08T09:06:53;9.77;;;8.77;;
30515;SDS011;17297;54.022;10.760;2023-09-08T09:09:18;10.93;;;9.18;;
30515;SDS011;17297;54.022;10.760;2023-09-08T09:11:44;9.77;;;8.50;;
30515;SDS011;17297;54.022;10.760;2023-09-08T09:14:10;10.70;;;8.43;;
30515;SDS011;17297;54.022;10.760;2023-09-08T09:16:41;10.48;;;9.02;;
30515;SDS011;17297;54.022;10.760;2023-09-08T09:19:08;12.25;;;11.02;;
30515;SDS011;17297;54.022;10.760;2023-09-08T09:21:43;15.30;;;13.77;;
30515;SDS011;17297;54.022;10.760;2023-09-08T09:24:29;18.58;;;16.67;;
30515;SDS011;17297;54.022;10.760;2023-09-08T09:26:59;23.02;;;17.55;;
30515;SDS011;17297;54.022;10.760;2023-09-08T09:29:25;15.70;;;14.10;;
30515;SDS011;17297;54.022;10.760;2023-09-08T09:31:52;13.05;;;11.77;;
30515;SDS011;17297;54.022;10.760;2023-09-08T09:34:31;12.82;;;11.52;;
30515;SDS011;17297;54.022;10.760;2023-09-08T09:36:57;13.48;;;12.27;;
30515;SDS011;17297;54.022;10.760;2023-09-08T09:39:23;13.73;;;12.38;;
30515;SDS011;17297;54.022;10.760;2023-09-08T09:41:52;13.02;;;11.65;;
30515;SDS011;17297;54.022;10.760;2023-09-08T09:44:19;15.13;;;13.50;;
30515;SDS011;17297;54.022;10.760;2023-09-08T09:46:46;16.70;;;15.05;;
30515;SDS011;17297;54.022;10.760;2023-09-08T09:49:15;16.95;;;15.32;;
30515;SDS011;17297;54.022;10.760;2023-09-08T09:51:45;21.77;;;17.33;;
30515;SDS011;17297;54.022;10.760;2023-09-08T09:54:12;18.35;;;16.50;;
30515;SDS011;17297;54.022;10.760;2023-09-08T09:56:38;18.25;;;16.38;;
30515;SDS011;17297;54.022;10.760;2023-09-08T09:59:04;17.30;;;15.50;;
30515;SDS011;17297;54.022;10.760;2023-09-08T10:01:34;16.20;;;14.52;;
30515;SDS011;17297;54.022;10.760;2023-09-08T10:04:00;15.15;;;13.55;;
30515;SDS011;17297;54.022;10.760;2023-09-08T10:06:28;16.65;;;15.05;;
30515;SDS011;17297;54.022;10.760;2023-09-08T10:08:56;16.50;;;14.35;;
30515;SDS011;17297;54.022;10.760;2023-09-08T10:11:24;18.67;;;15.43;;
30515;SDS011;17297;54.022;10.760;2023-09-08T10:13:53;14.18;;;12.88;;
30515;SDS011;17297;54.022;10.760;2023-09-08T10:16:23;14.15;;;12.75;;
30515;SDS011;17297;54.022;10.760;2023-09-08T10:18:51;14.13;;;12.82;;
30515;SDS011;17297;54.022;10.760;2023-09-08T10:21:17;13.18;;;11.98;;
30515;SDS011;17297;54.022;10.760;2023-09-08T10:23:49;12.00;;;10.80;;
30515;SDS011;17297;54.022;10.760;2023-09-08T10:26:21;11.35;;;10.25;;
30515;SDS011;17297;54.022;10.760;2023-09-08T10:28:51;11.52;;;10.43;;
30515;SDS011;17297;54.022;10.760;2023-09-08T10:31:21;14.63;;;11.32;;
30515;SDS011;17297;54.022;10.760;2023-09-08T10:33:48;12.30;;;11.00;;
30515;SDS011;17297;54.022;10.760;2023-09-08T10:36:14;11.45;;;10.40;;
30515;SDS011;17297;54.022;10.760;2023-09-08T10:38:40;13.52;;;12.15;;
30515;SDS011;17297;54.022;10.760;2023-09-08T10:43:44;12.57;;;11.38;;
30515;SDS011;17297;54.022;10.760;2023-09-08T10:46:12;12.50;;;11.30;;
30515;SDS011;17297;54.022;10.760;2023-09-08T10:48:46;11.23;;;10.15;;
30515;SDS011;17297;54.022;10.760;2023-09-08T10:51:12;11.75;;;10.60;;
30515;SDS011;17297;54.022;10.760;2023-09-08T10:53:39;12.57;;;11.27;;
30515;SDS011;17297;54.022;10.760;2023-09-08T10:56:05;14.13;;;12.70;;
30515;SDS011;17297;54.022;10.760;2023-09-08T11:00:58;13.38;;;12.07;;
30515;SDS011;17297;54.022;10.760;2023-09-08T11:06:04;14.40;;;13.02;;
30515;SDS011;17297;54.022;10.760;2023-09-08T11:08:30;17.42;;;15.50;;
30515;SDS011;17297;54.022;10.760;2023-09-08T11:10:56;17.30;;;15.27;;
30515;SDS011;17297;54.022;10.760;2023-09-08T11:13:22;13.20;;;11.88;;
30515;SDS011;17297;54.022;10.760;2023-09-08T11:15:47;12.40;;;11.20;;
30515;SDS011;17297;54.022;10.760;2023-09-08T11:18:15;10.32;;;9.35;;
30515;SDS011;17297;54.022;10.760;2023-09-08T11:20:41;10.43;;;9.43;;
30515;SDS011;17297;54.022;10.760;2023-09-08T11:23:06;11.80;;;10.13;;
30515;SDS011;17297;54.022;10.760;2023-09-08T11:25:32;15.00;;;11.48;;
30515;SDS011;17297;54.022;10.760;2023-09-08T11:27:58;12.43;;;11.20;;
30515;SDS011;17297;54.022;10.760;2023-09-08T11:30:24;11.57;;;10.10;;
30515;SDS011;17297;54.022;10.760;2023-09-08T11:32:50;11.30;;;10.10;;
30515;SDS011;17297;54.022;10.760;2023-09-08T11:35:16;9.50;;;8.68;;
30515;SDS011;17297;54.022;10.760;2023-09-08T11:37:41;9.75;;;8.85;;
30515;SDS011;17297;54.022;10.760;2023-09-08T11:40:08;24.42;;;9.52;;
30515;SDS011;17297;54.022;10.760;2023-09-08T11:42:38;9.77;;;8.88;;
30515;SDS011;17297;54.022;10.760;2023-09-08T11:45:09;9.55;;;8.60;;
30515;SDS011;17297;54.022;10.760;2023-09-08T11:47:39;10.18;;;9.18;;
30515;SDS011;17297;54.022;10.760;2023-09-08T11:50:05;10.15;;;9.20;;
30515;SDS011;17297;54.022;10.760;2023-09-08T11:52:32;9.38;;;8.43;;
30515;SDS011;17297;54.022;10.760;2023-09-08T11:54:57;10.20;;;9.23;;
30515;SDS011;17297;54.022;10.760;2023-09-08T11:57:23;10.85;;;9.85;;
30515;SDS011;17297;54.022;10.760;2023-09-08T11:59:49;10.15;;;9.15;;
30515;SDS011;17297;54.022;10.760;2023-09-08T12:02:15;12.48;;;10.15;;
30515;SDS011;17297;54.022;10.760;2023-09-08T12:04:40;10.30;;;8.60;;
30515;SDS011;17297;54.022;10.760;2023-09-08T12:07:07;9.48;;;8.57;;
30515;SDS011;17297;54.022;10.760;2023-09-08T12:09:41;9.55;;;8.65;;
30515;SDS011;17297;54.022;10.760;2023-09-08T12:12:11;9.15;;;8.35;;
30515;SDS011;17297;54.022;10.760;2023-09-08T12:14:43;9.38;;;8.50;;
30515;SDS011;17297;54.022;10.760;2023-09-08T12:17:08;9.48;;;8.57;;
30515;SDS011;17297;54.022;10.760;2023-09-08T12:19:34;8.70;;;7.80;;
30515;SDS011;17297;54.022;10.760;2023-09-08T12:22:03;8.30;;;7.45;;
30515;SDS011;17297;54.022;10.760;2023-09-08T12:24:45;9.77;;;8.60;;
30515;SDS011;17297;54.022;10.760;2023-09-08T12:27:15;8.80;;;8.02;;
30515;SDS011;17297;54.022;10.760;2023-09-08T12:30:02;8.80;;;8.00;;
30515;SDS011;17297;54.022;10.760;2023-09-08T12:32:31;9.02;;;8.10;;
30515;SDS011;17297;54.022;10.760;2023-09-08T12:34:58;9.77;;;7.97;;
30515;SDS011;17297;54.022;10.760;2023-09-08T12:37:26;8.35;;;7.55;;
30515;SDS011;17297;54.022;10.760;2023-09-08T12:39:53;10.45;;;8.40;;
30515;SDS011;17297;54.022;10.760;2023-09-08T12:42:18;9.07;;;8.30;;
30515;SDS011;17297;54.022;10.760;2023-09-08T12:44:44;9.15;;;8.07;;
30515;SDS011;17297;54.022;10.760;2023-09-08T12:47:11;8.60;;;7.55;;
30515;SDS011;17297;54.022;10.760;2023-09-08T12:49:39;14.23;;;8.35;;
30515;SDS011;17297;54.022;10.760;2023-09-08T12:52:05;8.57;;;7.78;;
30515;SDS011;17297;54.022;10.760;2023-09-08T12:54:31;8.43;;;7.63;;
30515;SDS011;17297;54.022;10.760;2023-09-08T12:56:57;7.75;;;6.80;;
30515;SDS011;17297;54.022;10.760;2023-09-08T12:59:22;9.55;;;8.52;;
30515;SDS011;17297;54.022;10.760;2023-09-08T13:01:47;9.07;;;7.70;;
30515;SDS011;17297;54.022;10.760;2023-09-08T13:04:12;7.55;;;6.60;;
30515;SDS011;17297;54.022;10.760;2023-09-08T13:06:38;6.82;;;6.22;;
30515;SDS011;17297;54.022;10.760;2023-09-08T13:09:03;6.28;;;5.50;;
30515;SDS011;17297;54.022;10.760;2023-09-08T13:11:29;6.65;;;6.05;;
30515;SDS011;17297;54.022;10.760;2023-09-08T13:13:55;7.30;;;6.60;;
30515;SDS011;17297;54.022;10.760;2023-09-08T13:16:21;8.45;;;7.20;;
30515;SDS011;17297;54.022;10.760;2023-09-08T13:18:46;8.10;;;7.40;;
30515;SDS011;17297;54.022;10.760;2023-09-08T13:21:12;6.22;;;5.63;;
30515;SDS011;17297;54.022;10.760;2023-09-08T13:23:38;5.13;;;4.68;;
30515;SDS011;17297;54.022;10.760;2023-09-08T13:26:03;7.68;;;5.90;;
30515;SDS011;17297;54.022;10.760;2023-09-08T13:28:28;7.18;;;6.47;;
30515;SDS011;17297;54.022;10.760;2023-09-08T13:30:54;5.78;;;5.28;;
30515;SDS011;17297;54.022;10.760;2023-09-08T13:33:19;5.45;;;4.95;;
30515;SDS011;17297;54.022;10.760;2023-09-08T13:35:45;6.00;;;5.50;;
30515;SDS011;17297;54.022;10.760;2023-09-08T13:38:10;5.43;;;4.72;;
30515;SDS011;17297;54.022;10.760;2023-09-08T13:40:36;5.82;;;5.22;;
30515;SDS011;17297;54.022;10.760;2023-09-08T13:43:01;5.60;;;5.10;;
30515;SDS011;17297;54.022;10.760;2023-09-08T13:45:26;5.47;;;4.93;;
30515;SDS011;17297;54.022;10.760;2023-09-08T13:47:52;7.25;;;5.82;;
30515;SDS011;17297;54.022;10.760;2023-09-08T13:50:17;5.57;;;5.07;;
30515;SDS011;17297;54.022;10.760;2023-09-08T13:52:44;11.80;;;6.30;;
30515;SDS011;17297;54.022;10.760;2023-09-08T13:55:09;6.00;;;5.40;;
30515;SDS011;17297;54.022;10.760;2023-09-08T13:57:35;5.90;;;5.00;;
30515;SDS011;17297;54.022;10.760;2023-09-08T14:00:02;5.82;;;4.57;;
30515;SDS011;17297;54.022;10.760;2023-09-08T14:02:35;5.10;;;4.60;;
30515;SDS011;17297;54.022;10.760;2023-09-08T14:05:01;4.63;;;4.22;;
30515;SDS011;17297;54.022;10.760;2023-09-08T14:07:26;5.32;;;4.80;;
30515;SDS011;17297;54.022;10.760;2023-09-08T14:09:52;5.90;;;5.40;;
30515;SDS011;17297;54.022;10.760;2023-09-08T14:12:17;5.65;;;4.78;;
30515;SDS011;17297;54.022;10.760;2023-09-08T14:14:43;5.32;;;4.78;;
30515;SDS011;17297;54.022;10.760;2023-09-08T14:17:08;5.10;;;4.70;;
30515;SDS011;17297;54.022;10.760;2023-09-08T14:19:34;5.95;;;5.35;;
30515;SDS011;17297;54.022;10.760;2023-09-08T14:21:59;5.85;;;5.28;;
30515;SDS011;17297;54.022;10.760;2023-09-08T14:24:24;5.03;;;4.57;;
30515;SDS011;17297;54.022;10.760;2023-09-08T14:26:50;6.60;;;6.00;;
30515;SDS011;17297;54.022;10.760;2023-09-08T14:29:17;5.53;;;5.03;;
30515;SDS011;17297;54.022;10.760;2023-09-08T14:31:42;5.85;;;4.88;;
30515;SDS011;17297;54.022;10.760;2023-09-08T14:34:08;6.05;;;5.55;;
30515;SDS011;17297;54.022;10.760;2023-09-08T14:36:34;6.07;;;5.47;;
30515;SDS011;17297;54.022;10.760;2023-09-08T14:38:59;6.93;;;6.30;;